sensor_id;sensor_type;location;lat;lon;timestamp;temperature;humidity
20315;DHT22;10315;50.958;13.080;2022-08-20T00:07:58;17.40;99.90
20315;DHT22;10315;50.958;13.080;2022-08-20T00:18:02;17.20;99.90
20315;DHT22;10315;50.958;13.080;2022-08-20T00:28:04;17.20;99.90
20315;DHT22;10315;50.958;13.080;2022-08-20T00:38:08;17.30;99.90
20315;DHT22;10315;50.958;13.080;2022-08-20T00:48:10;17.20;99.90
20315;DHT22;10315;50.958;13.080;2022-08-20T00:58:13;17.20;99.90
20315;DHT22;10315;50.958;13.080;2022-08-20T01:08:16;17.20;99.90
20315;DHT22;10315;50.958;13.080;2022-08-20T01:18:22;17.20;99.90
20315;DHT22;10315;50.958;13.080;2022-08-20T01:28:33;17.10;99.90
20315;DHT22;10315;50.958;13.080;2022-08-20T01:38:35;17.00;99.90
20315;DHT22;10315;50.958;13.080;2022-08-20T01:48:40;17.00;99.90
20315;DHT22;10315;50.958;13.080;2022-08-20T01:58:44;17.00;99.90
20315;DHT22;10315;50.958;13.080;2022-08-20T02:08:47;17.00;99.90
20315;DHT22;10315;50.958;13.080;2022-08-20T02:18:52;17.00;99.90
20315;DHT22;10315;50.958;13.080;2022-08-20T02:28:57;16.90;99.90
20315;DHT22;10315;50.958;13.080;2022-08-20T02:38:59;16.90;99.90
20315;DHT22;10315;50.958;13.080;2022-08-20T02:49:03;16.80;99.90
20315;DHT22;10315;50.958;13.080;2022-08-20T02:59:05;16.90;99.90
20315;DHT22;10315;50.958;13.080;2022-08-20T03:09:08;16.90;99.90
20315;DHT22;10315;50.958;13.080;2022-08-20T03:19:10;16.80;99.90
20315;DHT22;10315;50.958;13.080;2022-08-20T03:29:14;16.80;99.90
20315;DHT22;10315;50.958;13.080;2022-08-20T03:39:16;16.70;99.90
20315;DHT22;10315;50.958;13.080;2022-08-20T03:49:19;16.70;99.90
20315;DHT22;10315;50.958;13.080;2022-08-20T03:59:20;16.70;99.90
20315;DHT22;10315;50.958;13.080;2022-08-20T04:09:23;16.60;99.90
20315;DHT22;10315;50.958;13.080;2022-08-20T04:19:25;16.60;99.90
20315;DHT22;10315;50.958;13.080;2022-08-20T04:29:28;16.50;99.90
20315;DHT22;10315;50.958;13.080;2022-08-20T04:39:30;16.30;99.90
20315;DHT22;10315;50.958;13.080;2022-08-20T04:49:33;16.20;99.90
20315;DHT22;10315;50.958;13.080;2022-08-20T04:59:34;16.10;99.90
20315;DHT22;10315;50.958;13.080;2022-08-20T05:09:37;16.00;99.90
20315;DHT22;10315;50.958;13.080;2022-08-20T05:19:39;16.00;99.90
20315;DHT22;10315;50.958;13.080;2022-08-20T05:29:58;16.00;99.90
20315;DHT22;10315;50.958;13.080;2022-08-20T05:40:11;16.00;99.90
20315;DHT22;10315;50.958;13.080;2022-08-20T05:50:25;16.10;99.90
20315;DHT22;10315;50.958;13.080;2022-08-20T06:00:35;16.10;99.90
20315;DHT22;10315;50.958;13.080;2022-08-20T06:10:39;16.40;99.90
20315;DHT22;10315;50.958;13.080;2022-08-20T06:20:52;16.60;99.90
20315;DHT22;10315;50.958;13.080;2022-08-20T06:31:04;16.80;99.90
20315;DHT22;10315;50.958;13.080;2022-08-20T06:41:14;16.80;99.90
20315;DHT22;10315;50.958;13.080;2022-08-20T06:51:21;16.70;99.90
20315;DHT22;10315;50.958;13.080;2022-08-20T07:01:23;16.60;99.90
20315;DHT22;10315;50.958;13.080;2022-08-20T07:11:26;16.50;99.90
20315;DHT22;10315;50.958;13.080;2022-08-20T07:21:27;16.60;99.90
20315;DHT22;10315;50.958;13.080;2022-08-20T07:31:31;16.60;99.90
20315;DHT22;10315;50.958;13.080;2022-08-20T07:41:50;16.90;99.90
20315;DHT22;10315;50.958;13.080;2022-08-20T07:52:04;16.80;99.90
20315;DHT22;10315;50.958;13.080;2022-08-20T08:02:06;16.90;99.90
20315;DHT22;10315;50.958;13.080;2022-08-20T08:12:09;17.00;99.90
20315;DHT22;10315;50.958;13.080;2022-08-20T08:22:14;17.20;99.90
20315;DHT22;10315;50.958;13.080;2022-08-20T08:32:18;17.50;99.90
20315;DHT22;10315;50.958;13.080;2022-08-20T08:42:25;18.00;99.90
20315;DHT22;10315;50.958;13.080;2022-08-20T08:52:30;18.50;99.90
20315;DHT22;10315;50.958;13.080;2022-08-20T09:02:33;18.90;99.90
20315;DHT22;10315;50.958;13.080;2022-08-20T09:12:36;19.60;99.90
20315;DHT22;10315;50.958;13.080;2022-08-20T09:22:39;20.40;99.90
20315;DHT22;10315;50.958;13.080;2022-08-20T09:32:43;21.30;99.90
20315;DHT22;10315;50.958;13.080;2022-08-20T09:42:44;20.90;99.90
20315;DHT22;10315;50.958;13.080;2022-08-20T09:52:49;21.00;99.90
20315;DHT22;10315;50.958;13.080;2022-08-20T10:02:51;21.60;99.90
20315;DHT22;10315;50.958;13.080;2022-08-20T10:12:54;21.40;99.90
20315;DHT22;10315;50.958;13.080;2022-08-20T10:22:55;21.30;99.90
20315;DHT22;10315;50.958;13.080;2022-08-20T10:32:58;20.40;99.90
20315;DHT22;10315;50.958;13.080;2022-08-20T10:43:00;20.30;99.90
20315;DHT22;10315;50.958;13.080;2022-08-20T10:53:03;20.20;99.90
20315;DHT22;10315;50.958;13.080;2022-08-20T11:03:05;20.20;99.90
20315;DHT22;10315;50.958;13.080;2022-08-20T11:13:09;20.60;99.90
20315;DHT22;10315;50.958;13.080;2022-08-20T11:23:11;20.60;99.90
20315;DHT22;10315;50.958;13.080;2022-08-20T11:33:14;20.70;99.90
20315;DHT22;10315;50.958;13.080;2022-08-20T11:43:16;20.90;99.90
20315;DHT22;10315;50.958;13.080;2022-08-20T11:53:18;20.60;99.90
20315;DHT22;10315;50.958;13.080;2022-08-20T12:03:20;20.30;99.90
20315;DHT22;10315;50.958;13.080;2022-08-20T12:13:23;20.10;99.90
20315;DHT22;10315;50.958;13.080;2022-08-20T12:23:25;19.90;99.90
20315;DHT22;10315;50.958;13.080;2022-08-20T12:33:28;19.50;99.90
20315;DHT22;10315;50.958;13.080;2022-08-20T12:43:30;19.40;99.90
20315;DHT22;10315;50.958;13.080;2022-08-20T12:53:32;19.60;99.90
20315;DHT22;10315;50.958;13.080;2022-08-20T13:03:34;19.60;99.90
20315;DHT22;10315;50.958;13.080;2022-08-20T13:13:37;19.70;99.90
20315;DHT22;10315;50.958;13.080;2022-08-20T13:23:38;19.70;99.90
20315;DHT22;10315;50.958;13.080;2022-08-20T13:33:41;19.80;99.90
20315;DHT22;10315;50.958;13.080;2022-08-20T13:43:43;19.80;99.90
20315;DHT22;10315;50.958;13.080;2022-08-20T13:53:46;19.90;99.90
20315;DHT22;10315;50.958;13.080;2022-08-20T14:03:47;19.60;99.90
20315;DHT22;10315;50.958;13.080;2022-08-20T14:13:50;19.20;99.90
20315;DHT22;10315;50.958;13.080;2022-08-20T14:23:52;19.00;99.90
20315;DHT22;10315;50.958;13.080;2022-08-20T14:33:56;18.90;99.90
20315;DHT22;10315;50.958;13.080;2022-08-20T14:43:57;18.60;99.90
20315;DHT22;10315;50.958;13.080;2022-08-20T14:54:00;18.60;99.90
20315;DHT22;10315;50.958;13.080;2022-08-20T15:04:02;18.70;99.90
20315;DHT22;10315;50.958;13.080;2022-08-20T15:14:05;18.80;99.90
20315;DHT22;10315;50.958;13.080;2022-08-20T15:24:07;19.00;99.90
20315;DHT22;10315;50.958;13.080;2022-08-20T15:34:10;19.10;99.90
20315;DHT22;10315;50.958;13.080;2022-08-20T15:44:11;19.30;99.90
20315;DHT22;10315;50.958;13.080;2022-08-20T15:54:17;19.50;99.90
20315;DHT22;10315;50.958;13.080;2022-08-20T16:04:45;19.60;99.90
20315;DHT22;10315;50.958;13.080;2022-08-20T16:14:59;19.50;99.90
20315;DHT22;10315;50.958;13.080;2022-08-20T16:25:01;19.60;99.90
20315;DHT22;10315;50.958;13.080;2022-08-20T16:35:16;19.50;99.90
20315;DHT22;10315;50.958;13.080;2022-08-20T16:45:22;19.40;99.90
20315;DHT22;10315;50.958;13.080;2022-08-20T16:55:25;19.10;99.90
20315;DHT22;10315;50.958;13.080;2022-08-20T17:05:41;18.90;99.90
20315;DHT22;10315;50.958;13.080;2022-08-20T17:15:52;18.70;99.90
20315;DHT22;10315;50.958;13.080;2022-08-20T17:25:57;18.50;99.90
20315;DHT22;10315;50.958;13.080;2022-08-20T17:36:05;18.30;99.90
20315;DHT22;10315;50.958;13.080;2022-08-20T17:46:10;18.00;99.90
20315;DHT22;10315;50.958;13.080;2022-08-20T17:56:21;17.80;99.90
20315;DHT22;10315;50.958;13.080;2022-08-20T18:06:28;17.80;99.90
20315;DHT22;10315;50.958;13.080;2022-08-20T18:16:42;17.80;99.90
20315;DHT22;10315;50.958;13.080;2022-08-20T18:26:48;17.70;99.90
20315;DHT22;10315;50.958;13.080;2022-08-20T18:36:56;17.70;99.90
20315;DHT22;10315;50.958;13.080;2022-08-20T18:47:01;17.50;99.90
20315;DHT22;10315;50.958;13.080;2022-08-20T18:57:07;17.50;99.90
20315;DHT22;10315;50.958;13.080;2022-08-20T19:07:10;17.40;99.90
20315;DHT22;10315;50.958;13.080;2022-08-20T19:17:22;17.30;99.90
20315;DHT22;10315;50.958;13.080;2022-08-20T19:27:28;17.00;99.90
20315;DHT22;10315;50.958;13.080;2022-08-20T19:37:35;17.00;99.90
20315;DHT22;10315;50.958;13.080;2022-08-20T19:47:53;17.00;99.90
20315;DHT22;10315;50.958;13.080;2022-08-20T19:58:05;17.10;99.90
20315;DHT22;10315;50.958;13.080;2022-08-20T20:08:07;17.20;99.90
20315;DHT22;10315;50.958;13.080;2022-08-20T20:18:11;17.10;99.90
20315;DHT22;10315;50.958;13.080;2022-08-20T20:28:18;17.00;99.90
20315;DHT22;10315;50.958;13.080;2022-08-20T20:38:26;17.10;99.90
20315;DHT22;10315;50.958;13.080;2022-08-20T20:48:30;17.20;99.90
20315;DHT22;10315;50.958;13.080;2022-08-20T20:58:40;17.30;99.90
20315;DHT22;10315;50.958;13.080;2022-08-20T21:08:42;17.20;99.90
20315;DHT22;10315;50.958;13.080;2022-08-20T21:18:45;17.20;99.90
20315;DHT22;10315;50.958;13.080;2022-08-20T21:28:47;17.10;99.90
20315;DHT22;10315;50.958;13.080;2022-08-20T21:38:50;17.00;99.90
20315;DHT22;10315;50.958;13.080;2022-08-20T21:48:52;17.00;99.90
20315;DHT22;10315;50.958;13.080;2022-08-20T21:58:57;16.90;99.90
20315;DHT22;10315;50.958;13.080;2022-08-20T22:08:59;16.80;99.90
20315;DHT22;10315;50.958;13.080;2022-08-20T22:19:02;16.90;99.90
20315;DHT22;10315;50.958;13.080;2022-08-20T22:29:05;16.90;99.90
20315;DHT22;10315;50.958;13.080;2022-08-20T22:39:08;16.80;99.90
20315;DHT22;10315;50.958;13.080;2022-08-20T22:49:12;16.80;99.90
20315;DHT22;10315;50.958;13.080;2022-08-20T22:59:15;16.70;99.90
20315;DHT22;10315;50.958;13.080;2022-08-20T23:09:17;16.70;99.90
20315;DHT22;10315;50.958;13.080;2022-08-20T23:19:21;16.60;99.90
20315;DHT22;10315;50.958;13.080;2022-08-20T23:29:25;16.60;99.90
20315;DHT22;10315;50.958;13.080;2022-08-20T23:39:28;16.60;99.90
20315;DHT22;10315;50.958;13.080;2022-08-20T23:49:31;16.50;99.90
20315;DHT22;10315;50.958;13.080;2022-08-20T23:59:34;16.60;99.90
